DAUL/LOO METAR and TAF weather

Enter ICAO airport designator
Station Type Date Time Source
DAUL METAR 2022/12/04 03:00 UTC NOAA

DAUL 040300Z 00000KT CAVOK 03/01 Q1014


Station Type Date Time Source
DAUL Decoded METAR 2022/12/04 03:00 UTC NOAA

Laghouat, Algeria (DAUL) 33-46N 002-56E 765M
Dec 03, 2022 - 10:00 PM EST / 2022.12.04 0300 UTC
Wind: Calm:0
Visibility: greater than 7 mile(s):0
Temperature: 37 F (3 C)
Dew Point: 33 F (1 C)
Relative Humidity: 86%
Pressure (altimeter): 29.94 in. Hg (1014 hPa)
ob: DAUL 040300Z 00000KT CAVOK 03/01 Q1014
cycle: 3

Station Type Date Time Source
DAUL TAF 2017/11/09 18:03 UTC NOAA

TAF DAUL 091700Z 0918/1009 02012KT 9999 SCT030 SCT100 PROB40
TEMPO 0918/0924 35020G30KT 4000 -TSRA FEW030CB

Example: see airport list